FYWB

Walvis Bay Airport

Walvis Bay, Namibia
METAR FYWB 171200Z 31009KT 9999 FEW028 21/14 Q1016
Observed Flight Rules
Dec-17 @ 12:00 UTC (an hour ago) Visual Flight Rules
Wind Visibility Clouds
310° at 9 knots 10,000+ meters
  • Few at 2,800' AGL
Temperatures Readings
Current 21°C / 70°F
Dewpoint 14°C / 57°F
Humidity 64%
Altimeter 30" Hg
Pressure 1016 hPa
Elevation 46
METAR FYWB 171200Z 31009KT 9999 FEW028 21/14 Q1016
Observed Flight Rules
Dec-17 @ 12:00 UTC
(an hour ago)
VFR
Wind Visibility
310° at 9 knots 10,000+ meters
Clouds
  • Few at 2,800' AGL
Temperature Dewpoint
21°C / 70°F 14°C / 57°F
Humidity Altimeter Pressure
64% 30" Hg 1016 hPa